Aérodrome :
LOGIN :

S'inscrire | Disclaimer

   EN    FR    IT 

 










Légende :    VFR   VFR Marginal   IFR   IFR Intensif   IFR Très Intensif
Visi : 
Plafond : 
>= 8 km
>= 3000ft
5 à 8 km
1000 à 3000 ft
1500m à 5 km
500 à 1000 ft
800 à 1500m
200 à 500 ft
< 800m
< 200 ft
Symboles :   Orages  Brouillard  Fortes neiges  Fortes précipitations  Vent > 20 kt
SIGMETs :   Divers  Orages  Givrage  Turbulence  Onde Orograph.  Cendres Volcan.







- Altitude de l'aérodrome : 162 ft
- Code IATA : BOD
- Voir les cartes d'approche


LFBD - Bordeaux / Merignac

DERNIER METAR :
  • 241730Z AUTO 07009KT 040V100 9999 BKN033 BKN039 BKN048 13/06 Q1017 TEMPO 3000 RA BKN006 BKN014

METARs EXPIRÉS :
  • 241700Z AUTO 07009KT 9999 BKN033 BKN048 BKN060 13/06 Q1017 TEMPO 3000 RA BKN006 BKN014
  • 241630Z AUTO 08008KT 9999 FEW013 BKN034 BKN052 14/06 Q1017 TEMPO 3000 RA BKN006 BKN014
  • 241600Z AUTO 09008KT 9999 SCT035 SCT041 BKN140 14/06 Q1017 NOSIG
  • 241530Z AUTO 09009KT 050V120 9999 FEW035 SCT170 14/06 Q1017 NOSIG
  • 241500Z AUTO 08010KT 9999 FEW032 SCT140 14/06 Q1017 NOSIG

TAF TAF LFBD
Valide du 24 à 18h jusqu'au 26 à 00h UTC


241700Z 2418/2524 05005KT 9999 BKN025
TEMPO 2418/2424 3000 RA BKN006 BKN014
PROB40
TEMPO 2500/2506 BKN006
BECMG 2506/2508 CAVOK
BECMG 2508/2510 12010KT
TEMPO 2510/2518 12015G25KT 4000 SHRA SCT015TCU BKN020
PROB30
TEMPO 2514/2517 12020G30KT TX15/2515Z TN08/2503Z
ATIS : +33 5 57 92 81 04
Pas de NOTAMs connus pour ce terrain.



MET'MAP, la Météo Aéronautique d'un coup d'oeil ! - Copyright ORBIFLY Décembre 2007 - Disclaimer

ORBIFLY MET'MAP TEAM :

Programmation & Développement : Alexandra Zaïnal
Conception & Développement : Baudouin d'Aumeries
Co-Programmation & Développement : Marc-Olivier Méhu
Soutien technique & logistique : Manuel Goepfert

Contact : metmap@orbifly.com




SOURCES & CREDITS :

   NOAA